Sensho — JG5609 — position and weather

sailwx.info

Track history (hours):
 
Tides and Currents Weather Stations Pressure Air Temp Water Temp Dewpoint Dewpoint Depression Visibility Wind Speed Wind Dir Waves Ship Positions

Sensho

Last reported at 2018-Feb-22 04:29 UTC. Time now 2018-Feb-22 04:34 UTC.
Position N 33°54' E 130°53'.

Length 81 m; draft 4 m.

Type: Cargo ship. MMSI: 431100886.

Date/timePositionNaut miles runAvg speedWind from/ knotsBaromVisibWave heightAir tempDewpointWater temp
2018-Feb-22 04:29N 33°54' E 130°53'0 0.0
2018-Feb-22 03:59N 33°54' E 130°53'0 0.0
2018-Feb-22 03:29N 33°54' E 130°53'0 0.0
2018-Feb-22 02:59N 33°54' E 130°53'0 0.0
2018-Feb-22 02:29N 33°54' E 130°53'0 0.0
2018-Feb-22 01:58N 33°54' E 130°53'0 0.0
2018-Feb-22 01:29N 33°54' E 130°53'0 0.0
2018-Feb-22 00:59N 33°54' E 130°53'2 3.8
2018-Feb-22 00:30N 33°54' E 130°55'510.2
2018-Feb-22 00:00N 33°58' E 130°59'5 9.2
2018-Feb-21 23:30N 33°57' E 131°04'714.0
2018-Feb-21 23:00N 33°53' E 131°11'714.2
2018-Feb-21 22:30N 33°52' E 131°19'714.3
2018-Feb-21 22:00N 33°52' E 131°28'714.2
2018-Feb-21 21:30N 33°51' E 131°37'714.0
2018-Feb-21 21:00N 33°50' E 131°45'714.0
2018-Feb-21 20:30N 33°47' E 131°53'713.7
2018-Feb-21 19:58N 33°46' E 132°02'814.7
2018-Feb-21 19:24N 33°49' E 132°10'614.4
2018-Feb-21 19:00N 33°50' E 132°17'814.6
2018-Feb-21 18:28N 33°51' E 132°26'714.3
2018-Feb-21 18:00N 33°54' E 132°34'713.9
2018-Feb-21 17:30N 33°57' E 132°41'7112.5
2018-Feb-21 11:47N 34°26' E 134°00'713.7
2018-Feb-21 11:16N 34°26' E 134°09'414.0
2018-Feb-21 10:58N 34°24' E 134°13'613.7
2018-Feb-21 10:30N 34°25' E 134°21'714.1
2018-Feb-21 10:00N 34°29' E 134°28'714.1
2018-Feb-21 09:30N 34°32' E 134°36'713.8
2018-Feb-21 09:01N 34°34' E 134°44'612.9
2018-Feb-21 08:31N 34°35' E 134°52'612.2
2018-Feb-21 08:00N 34°37' E 134°59'611.2
2018-Feb-21 07:30N 34°36' E 135°05'713.9
2018-Feb-21 07:00N 34°37' E 135°14'713.9
2018-Feb-21 06:31N 34°36' E 135°22'5 8.3
2018-Feb-21 05:58N 34°34' E 135°27'0 0.0
2018-Feb-21 05:28N 34°34' E 135°27'0 0.0
2018-Feb-21 04:58N 34°34' E 135°27'0 0.0
2018-Feb-21 04:28N 34°34' E 135°27'0 0.0
2018-Feb-21 03:58N 34°34' E 135°27'0 0.0
2018-Feb-21 03:28N 34°34' E 135°27'0 0.0
2018-Feb-21 02:58N 34°34' E 135°27'0 0.0
2018-Feb-21 02:25N 34°34' E 135°27'0 0.0
2018-Feb-21 01:58N 34°34' E 135°27'0 0.0
2018-Feb-21 01:28N 34°34' E 135°27'0 0.0
2018-Feb-21 00:58N 34°34' E 135°27'0 0.0
2018-Feb-21 00:28N 34°34' E 135°27'1 1.9
2018-Feb-21 00:00N 34°35' E 135°26'4 8.2
2018-Feb-20 23:31N 34°36' E 135°22'612.0
2018-Feb-20 23:00N 34°35' E 135°14'714.1
2018-Feb-20 22:31N 34°35' E 135°06'714.2
2018-Feb-20 22:00N 34°36' E 134°58'815.7
2018-Feb-20 21:30N 34°33' E 134°49'714.7
2018-Feb-20 21:00N 34°30' E 134°41'714.2
2018-Feb-20 20:30N 34°27' E 134°33'714.1
2018-Feb-20 20:00N 34°25' E 134°25'8513.3
2018-Feb-20 13:39N 34°02' E 132°46'315.8
2018-Feb-20 13:30N 34°00' E 132°44'814.7
2018-Feb-20 12:59N 33°55' E 132°38'714.9
2018-Feb-20 12:30N 33°52' E 132°30'714.7
2018-Feb-20 12:00N 33°50' E 132°22'714.6
2018-Feb-20 11:30N 33°49' E 132°13'714.3
2018-Feb-20 11:00N 33°46' E 132°05'713.7
2018-Feb-20 10:30N 33°45' E 131°57'713.9
2018-Feb-20 09:59N 33°46' E 131°49'714.0
2018-Feb-20 09:30N 33°47' E 131°41'714.2
2018-Feb-20 09:00N 33°49' E 131°32'714.4
2018-Feb-20 08:30N 33°51' E 131°24'714.5
2018-Feb-20 08:00N 33°52' E 131°15'714.5
2018-Feb-20 07:30N 33°55' E 131°07'714.2
2018-Feb-20 07:00N 33°58' E 130°60'713.6
2018-Feb-20 06:31N 33°54' E 130°54'1 1.4
2018-Feb-20 05:59N 33°54' E 130°53'0 0.0
2018-Feb-20 05:29N 33°54' E 130°53'0 0.0
2018-Feb-20 04:53N 33°54' E 130°53'0 0.0
2018-Feb-20 04:29N 33°54' E 130°53'0 0.0
2018-Feb-20 03:59N 33°54' E 130°53'0 0.0
2018-Feb-20 03:29N 33°54' E 130°53'0 0.0
2018-Feb-20 02:59N 33°54' E 130°53'0 0.0
2018-Feb-20 02:26N 33°54' E 130°53'0 0.0
2018-Feb-20 01:59N 33°54' E 130°53'0 0.0
2018-Feb-20 01:29N 33°54' E 130°53'0 0.0
2018-Feb-20 00:59N 33°54' E 130°53'0 0.6
2018-Feb-20 00:30N 33°54' E 130°53'511.0
2018-Feb-20 00:00N 33°58' E 130°58'4 8.0
2018-Feb-19 23:31N 33°58' E 131°02'713.7
2018-Feb-19 23:01N 33°54' E 131°09'714.6
2018-Feb-19 22:31N 33°52' E 131°17'714.7
2018-Feb-19 22:00N 33°51' E 131°26'5 9.5
2018-Feb-19 21:31N 33°51' E 131°32'714.3
2018-Feb-19 21:00N 33°50' E 131°40'714.0
2018-Feb-19 20:30N 33°48' E 131°49'1113.8
2018-Feb-19 19:42N 33°45' E 132°02'314.4
2018-Feb-19 19:30N 33°46' E 132°05'815.0
2018-Feb-19 18:57N 33°50' E 132°14'915.1
2018-Feb-19 18:21N 33°51' E 132°25'515.2
2018-Feb-19 18:00N 33°53' E 132°31'714.9
2018-Feb-19 17:30N 33°56' E 132°39'714.7
2018-Feb-19 17:00N 34°01' E 132°45'6712.0
2018-Feb-19 11:27N 34°26' E 134°00'814.4
2018-Feb-19 10:53N 34°26' E 134°10'614.2
2018-Feb-19 10:27N 34°25' E 134°17'613.8
2018-Feb-19 10:00N 34°27' E 134°24'714.0
2018-Feb-19 09:30N 34°30' E 134°31'713.8
2018-Feb-19 09:00N 34°33' E 134°39'713.5
2018-Feb-19 08:30N 34°34' E 134°47'612.8
2018-Feb-19 08:01N 34°37' E 134°54'611.8
2018-Feb-19 07:30N 34°37' E 135°01'611.4
2018-Feb-19 07:00N 34°37' E 135°08'714.0
2018-Feb-19 06:31N 34°37' E 135°17'713.7
2018-Feb-19 06:00N 34°36' E 135°25'2 4.5
2018-Feb-19 05:31N 34°34' E 135°27'0 0.0
2018-Feb-19 05:01N 34°34' E 135°27'0 0.0
2018-Feb-19 04:31N 34°34' E 135°27'0 0.0
2018-Feb-19 04:01N 34°34' E 135°27'0 0.0
2018-Feb-19 03:31N 34°34' E 135°27'0 0.0
2018-Feb-19 03:01N 34°34' E 135°27'0 0.0
2018-Feb-19 02:31N 34°34' E 135°27'0 0.0
2018-Feb-19 02:01N 34°34' E 135°27'0 0.0
2018-Feb-19 01:31N 34°34' E 135°27'0 0.0
2018-Feb-19 01:01N 34°34' E 135°27'0 0.0
2018-Feb-19 00:31N 34°34' E 135°27'0 0.0
2018-Feb-19 00:01N 34°34' E 135°27'1 1.5
2018-Feb-18 23:30N 34°35' E 135°27'5 9.7
2018-Feb-18 23:00N 34°36' E 135°21'5 9.4
2018-Feb-18 22:30N 34°35' E 135°15'0 0.0
2018-Feb-18 22:00N 34°35' E 135°15'612.8
2018-Feb-18 21:30N 34°34' E 135°08'815.3
2018-Feb-18 21:01N 34°37' E 134°59'816.0
2018-Feb-18 20:31N 34°33' E 134°51'714.7
2018-Feb-18 20:00N 34°30' E 134°43'714.2
2018-Feb-18 19:30N 34°27' E 134°35'714.0
2018-Feb-18 19:00N 34°25' E 134°27'714.1
2018-Feb-18 18:29N 34°24' E 134°18'815.3
2018-Feb-18 17:56N 34°26' E 134°08'7213.8
2018-Feb-18 12:44N 34°02' E 132°46'415.3
2018-Feb-18 12:29N 33°59' E 132°43'714.7
2018-Feb-18 12:00N 33°54' E 132°37'1214.7
2018-Feb-18 11:11N 33°50' E 132°24'314.8
2018-Feb-18 11:00N 33°50' E 132°20'714.6
2018-Feb-18 10:31N 33°49' E 132°12'714.1
2018-Feb-18 10:00N 33°46' E 132°04'913.7
2018-Feb-18 09:21N 33°45' E 131°53'513.7
2018-Feb-18 09:00N 33°46' E 131°48'713.8
2018-Feb-18 08:30N 33°47' E 131°40'714.0
2018-Feb-18 08:00N 33°49' E 131°31'714.2
2018-Feb-18 07:30N 33°51' E 131°23'714.4
2018-Feb-18 07:00N 33°52' E 131°15'714.4
2018-Feb-18 06:30N 33°55' E 131°07'713.7
2018-Feb-18 06:00N 33°58' E 130°59'612.8
2018-Feb-18 05:30N 33°54' E 130°54'1 1.5
2018-Feb-18 04:58N 33°54' E 130°53'0 0.0
2018-Feb-18 04:28N 33°54' E 130°53'0 0.0
2018-Feb-18 03:55N 33°54' E 130°53'0 0.0
2018-Feb-18 03:28N 33°54' E 130°53'0 0.0
2018-Feb-18 02:58N 33°54' E 130°53'0 0.0
2018-Feb-18 02:28N 33°54' E 130°53'0 0.0
2018-Feb-18 01:58N 33°54' E 130°53'0 0.0
2018-Feb-18 01:25N 33°54' E 130°53'0 0.0
2018-Feb-18 00:58N 33°54' E 130°53'0 0.0
2018-Feb-18 00:28N 33°54' E 130°53'0 0.0
2018-Feb-17 23:58N 33°54' E 130°53'0 0.1
2018-Feb-17 23:30N 33°54' E 130°53'5 9.3
2018-Feb-17 23:01N 33°57' E 130°57'4 7.3
2018-Feb-17 22:30N 33°58' E 131°01'612.3
2018-Feb-17 22:00N 33°55' E 131°07'714.9
2018-Feb-17 21:30N 33°52' E 131°15'714.9
2018-Feb-17 21:00N 33°53' E 131°24'714.7
2018-Feb-17 20:30N 33°53' E 131°33'714.7
2018-Feb-17 20:01N 33°52' E 131°42'714.3
2018-Feb-17 19:31N 33°49' E 131°50'1014.0
2018-Feb-17 18:46N 33°46' E 132°02'615.1
2018-Feb-17 18:23N 33°48' E 132°08'615.2
2018-Feb-17 18:00N 33°50' E 132°14'1115.4
2018-Feb-17 17:19N 33°51' E 132°27'515.5
2018-Feb-17 17:00N 33°53' E 132°32'815.5
2018-Feb-17 16:31N 33°57' E 132°41'8112.8
2018-Feb-17 10:13N 34°25' E 134°12'713.6
2018-Feb-17 09:41N 34°25' E 134°21'214.1
2018-Feb-17 09:30N 34°25' E 134°24'714.2
2018-Feb-17 09:00N 34°28' E 134°31'713.9
2018-Feb-17 08:30N 34°31' E 134°39'713.3
2018-Feb-17 08:00N 34°34' E 134°46'612.8
2018-Feb-17 07:30N 34°36' E 134°54'611.7
2018-Feb-17 07:01N 34°37' E 135°01'510.1
2018-Feb-17 06:30N 34°36' E 135°07'612.8
2018-Feb-17 06:00N 34°37' E 135°14'613.0
2018-Feb-17 05:31N 34°36' E 135°22'4 8.0
2018-Feb-17 05:00N 34°35' E 135°27'0 0.9
2018-Feb-17 04:29N 34°34' E 135°27'0 0.0
2018-Feb-17 03:59N 34°34' E 135°27'0 0.0
2018-Feb-17 03:29N 34°34' E 135°27'0 0.0
2018-Feb-17 02:56N 34°34' E 135°27'0 0.0
2018-Feb-17 02:29N 34°34' E 135°27'0 0.0
2018-Feb-17 01:56N 34°34' E 135°27'0 0.0
2018-Feb-17 01:26N 34°34' E 135°27'0 0.0
2018-Feb-17 00:56N 34°34' E 135°27'0 0.0
2018-Feb-17 00:29N 34°34' E 135°27'0 0.0
2018-Feb-16 23:56N 34°34' E 135°27'0 0.4
2018-Feb-16 23:29N 34°35' E 135°27'3 5.5
2018-Feb-16 23:00N 34°36' E 135°24'510.0
2018-Feb-16 22:30N 34°34' E 135°19'5 9.9
2018-Feb-16 22:00N 34°34' E 135°13'714.5
2018-Feb-16 21:31N 34°35' E 135°04'611.5
2018-Feb-16 21:00N 34°36' E 134°57'714.5
2018-Feb-16 20:31N 34°33' E 134°49'714.3
2018-Feb-16 20:01N 34°30' E 134°41'714.1
2018-Feb-16 19:31N 34°27' E 134°33'714.3
2018-Feb-16 19:01N 34°25' E 134°25'8713.2
2018-Feb-16 12:27N 33°60' E 132°45'715.4
2018-Feb-16 11:59N 33°55' E 132°39'1215.0
2018-Feb-16 11:09N 33°50' E 132°25'214.7
2018-Feb-16 11:00N 33°50' E 132°22'714.8
2018-Feb-16 10:30N 33°49' E 132°13'714.5
2018-Feb-16 09:59N 33°46' E 132°05'713.9
2018-Feb-16 09:30N 33°45' E 131°57'713.5
2018-Feb-16 09:00N 33°46' E 131°49'713.5
2018-Feb-16 08:30N 33°47' E 131°41'713.6
2018-Feb-16 08:00N 33°49' E 131°33'713.7
2018-Feb-16 07:30N 33°50' E 131°25'713.8
2018-Feb-16 07:00N 33°52' E 131°17'713.9
2018-Feb-16 06:31N 33°54' E 131°09'713.9
2018-Feb-16 06:00N 33°58' E 131°02'612.0
2018-Feb-16 05:31N 33°55' E 130°56'2 3.3
2018-Feb-16 04:45N 33°54' E 130°53'0 0.0
2018-Feb-16 04:30N 33°54' E 130°53'0 0.0
2018-Feb-16 04:00N 33°54' E 130°53'0 0.0
2018-Feb-16 03:30N 33°54' E 130°53'0 0.0
2018-Feb-16 03:00N 33°54' E 130°53'0 0.0
2018-Feb-16 02:24N 33°54' E 130°53'0 0.0
2018-Feb-16 01:57N 33°54' E 130°53'0 0.0
2018-Feb-16 01:30N 33°54' E 130°53'0 0.0
2018-Feb-16 01:00N 33°54' E 130°53'0 0.0
2018-Feb-16 00:30N 33°54' E 130°53'0 0.0
2018-Feb-16 00:00N 33°54' E 130°53'0 0.0
2018-Feb-15 23:30N 33°54' E 130°53'0 0.0
2018-Feb-15 23:00N 33°54' E 130°53'0 0.2
2018-Feb-15 22:31N 33°54' E 130°53'5 9.5
2018-Feb-15 22:00N 33°57' E 130°57'4 8.1
2018-Feb-15 21:31N 33°58' E 131°02'714.3
2018-Feb-15 21:00N 33°54' E 131°09'714.7
2018-Feb-15 20:30N 33°52' E 131°17'814.9
2018-Feb-15 20:00N 33°52' E 131°26'714.6
2018-Feb-15 19:30N 33°51' E 131°35'5 9.2
2018-Feb-15 18:59N 33°51' E 131°41'613.6
2018-Feb-15 18:30N 33°50' E 131°48'714.3
2018-Feb-15 18:01N 33°46' E 131°56'714.0
2018-Feb-15 17:30N 33°46' E 132°04'1015.0
2018-Feb-15 16:51N 33°50' E 132°15'514.9
2018-Feb-15 16:30N 33°50' E 132°21'815.5
2018-Feb-15 15:59N 33°53' E 132°31'715.2
2018-Feb-15 15:30N 33°56' E 132°39'815.2
2018-Feb-15 14:59N 34°01' E 132°45'7412.8
2018-Feb-15 09:13N 34°26' E 134°10'314.7
2018-Feb-15 09:00N 34°25' E 134°13'714.3
2018-Feb-15 08:30N 34°26' E 134°22'714.0
2018-Feb-15 08:00N 34°30' E 134°29'714.0
2018-Feb-15 07:30N 34°32' E 134°36'713.7
2018-Feb-15 07:00N 34°34' E 134°45'713.2
2018-Feb-15 06:30N 34°36' E 134°52'612.5
2018-Feb-15 06:00N 34°37' E 134°60'510.9
2018-Feb-15 05:31N 34°37' E 135°06'713.9
2018-Feb-15 05:00N 34°37' E 135°14'713.8
2018-Feb-15 04:30N 34°36' E 135°23'4 8.0
2018-Feb-15 04:00N 34°34' E 135°27'0 0.0
2018-Feb-15 03:28N 34°34' E 135°27'0 0.0
2018-Feb-15 02:49N 34°34' E 135°27'0 0.0
2018-Feb-15 02:25N 34°34' E 135°27'0 0.0
2018-Feb-15 01:55N 34°34' E 135°27'0 0.0
2018-Feb-15 01:28N 34°34' E 135°27'0 0.0
2018-Feb-15 00:58N 34°34' E 135°27'0 0.0
2018-Feb-15 00:25N 34°34' E 135°27'0 0.0
2018-Feb-14 23:55N 34°34' E 135°27'0 0.6
2018-Feb-14 23:28N 34°35' E 135°27'3 6.2
2018-Feb-14 23:00N 34°36' E 135°24'5 9.9
2018-Feb-14 22:31N 34°35' E 135°18'5 9.1
2018-Feb-14 22:01N 34°33' E 135°13'713.5
2018-Feb-14 21:30N 34°35' E 135°05'510.9
2018-Feb-14 21:00N 34°37' E 134°59'713.3
2018-Feb-14 20:30N 34°34' E 134°52'713.9
2018-Feb-14 20:01N 34°31' E 134°44'713.9
2018-Feb-14 19:30N 34°28' E 134°36'714.1
2018-Feb-14 19:01N 34°26' E 134°28'714.0
2018-Feb-14 18:29N 34°24' E 134°20'714.6
2018-Feb-14 18:00N 34°25' E 134°11'7612.8
2018-Feb-14 12:05N 34°00' E 132°45'215.1
2018-Feb-14 11:57N 33°59' E 132°44'715.2
2018-Feb-14 11:30N 33°54' E 132°37'1114.8
2018-Feb-14 10:45N 33°50' E 132°25'415.0
2018-Feb-14 10:29N 33°50' E 132°20'714.7
2018-Feb-14 10:00N 33°49' E 132°12'714.7
2018-Feb-14 09:31N 33°46' E 132°04'1413.8
2018-Feb-14 08:31N 33°47' E 131°47'113.2
2018-Feb-14 08:26N 33°47' E 131°46'613.7
2018-Feb-14 08:00N 33°49' E 131°39'713.6
2018-Feb-14 07:30N 33°50' E 131°31'713.6
2018-Feb-14 07:00N 33°51' E 131°23'713.5
2018-Feb-14 06:30N 33°52' E 131°15'713.6
2018-Feb-14 06:00N 33°55' E 131°08'714.1
2018-Feb-14 05:30N 33°59' E 131°00'714.4
2018-Feb-14 05:00N 33°54' E 130°54'1 1.6
2018-Feb-14 04:30N 33°54' E 130°53'0 0.0
2018-Feb-14 03:57N 33°54' E 130°53'0 0.0
2018-Feb-14 03:30N 33°54' E 130°53'0 0.0
2018-Feb-14 03:00N 33°54' E 130°53'0 0.0
2018-Feb-14 02:30N 33°54' E 130°53'0 0.0
2018-Feb-14 02:00N 33°54' E 130°53'0 0.0
2018-Feb-14 01:30N 33°54' E 130°53'0 0.0
2018-Feb-14 01:00N 33°54' E 130°53'0 0.0
2018-Feb-14 00:30N 33°54' E 130°53'0 0.0
2018-Feb-13 23:57N 33°54' E 130°53'0 0.0
2018-Feb-13 23:30N 33°54' E 130°53'1 2.1
2018-Feb-13 23:01N 33°54' E 130°54'713.8
2018-Feb-13 22:30N 33°59' E 131°00'713.2
2018-Feb-13 22:00N 33°55' E 131°07'714.5
2018-Feb-13 21:30N 33°52' E 131°15'714.6
2018-Feb-13 21:00N 33°52' E 131°23'714.6
2018-Feb-13 20:30N 33°51' E 131°32'714.7
2018-Feb-13 20:00N 33°50' E 131°41'714.6
2018-Feb-13 19:31N 33°48' E 131°49'1014.1
2018-Feb-13 18:49N 33°46' E 132°01'614.1
2018-Feb-13 18:23N 33°48' E 132°08'514.2
2018-Feb-13 17:59N 33°50' E 132°14'714.2
2018-Feb-13 17:29N 33°50' E 132°22'814.5
2018-Feb-13 16:58N 33°52' E 132°31'715.0
2018-Feb-13 16:30N 33°56' E 132°38'715.0
2018-Feb-13 16:00N 34°01' E 132°45'7012.8
2018-Feb-13 10:33N 34°27' E 134°03'514.2
2018-Feb-13 10:12N 34°26' E 134°09'314.5
2018-Feb-13 09:59N 34°24' E 134°13'714.0
2018-Feb-13 09:30N 34°25' E 134°21'714.1
2018-Feb-13 09:00N 34°28' E 134°29'713.8
2018-Feb-13 08:30N 34°31' E 134°36'713.2
2018-Feb-13 08:00N 34°33' E 134°44'713.3
2018-Feb-13 07:30N 34°35' E 134°51'613.1
2018-Feb-13 07:00N 34°37' E 134°59'611.7
2018-Feb-13 06:30N 34°36' E 135°06'713.0
2018-Feb-13 06:00N 34°37' E 135°14'713.2
2018-Feb-13 05:30N 34°36' E 135°22'5 9.2
2018-Feb-13 05:00N 34°34' E 135°27'0 0.1
2018-Feb-13 04:28N 34°34' E 135°27'0 0.0
2018-Feb-13 03:58N 34°34' E 135°27'0 0.0
2018-Feb-13 03:28N 34°34' E 135°27'0 0.0
2018-Feb-13 02:55N 34°34' E 135°27'0 0.0
2018-Feb-13 02:28N 34°34' E 135°27'0 0.0
2018-Feb-13 01:58N 34°34' E 135°27'0 0.0
2018-Feb-13 01:25N 34°34' E 135°27'0 0.0
2018-Feb-13 00:58N 34°34' E 135°27'0 0.0
2018-Feb-13 00:28N 34°34' E 135°27'0 0.0
2018-Feb-12 23:58N 34°34' E 135°27'0 0.7
2018-Feb-12 23:30N 34°35' E 135°27'4 7.9
2018-Feb-12 23:01N 34°36' E 135°22'713.9
2018-Feb-12 22:30N 34°35' E 135°14'713.7
2018-Feb-12 22:00N 34°35' E 135°06'510.9
2018-Feb-12 21:31N 34°37' E 134°60'612.0
2018-Feb-12 21:00N 34°34' E 134°53'612.6
2018-Feb-12 20:30N 34°32' E 134°46'713.5
2018-Feb-12 20:00N 34°29' E 134°39'713.7
2018-Feb-12 19:29N 34°26' E 134°31'2 4.7
2018-Feb-12 19:00N 34°24' E 134°30'612.5
2018-Feb-12 18:30N 34°24' E 134°22'814.1
2018-Feb-12 17:55N 34°24' E 134°12'7612.9
2018-Feb-12 12:01N 33°60' E 132°45'114.0
2018-Feb-12 11:58N 33°59' E 132°45'714.6
2018-Feb-12 11:29N 33°54' E 132°38'1214.5
2018-Feb-12 10:41N 33°50' E 132°25'214.7
2018-Feb-12 10:30N 33°50' E 132°22'814.6
2018-Feb-12 09:57N 33°49' E 132°12'714.5
2018-Feb-12 09:29N 33°46' E 132°05'1314.0
2018-Feb-12 08:32N 33°46' E 131°49'113.2
2018-Feb-12 08:30N 33°46' E 131°48'814.0
2018-Feb-12 07:53N 33°47' E 131°38'513.8
2018-Feb-12 07:30N 33°49' E 131°32'713.8
2018-Feb-12 07:00N 33°50' E 131°24'714.1
2018-Feb-12 06:30N 33°52' E 131°16'713.8
2018-Feb-12 06:00N 33°55' E 131°08'713.9
2018-Feb-12 05:30N 33°58' E 131°01'713.9
2018-Feb-12 05:01N 33°54' E 130°54'1 2.3
2018-Feb-12 04:30N 33°54' E 130°53'  
Track history (hours):
 
Tides and Currents Weather Stations Pressure Air Temp Water Temp Dewpoint Dewpoint Depression Visibility Wind Speed Wind Dir Waves Ship Positions

Sensho

Last reported at 2018-Feb-22 04:29 UTC. Time now 2018-Feb-22 04:34 UTC.
Position N 33°54' E 130°53'.

Length 81 m; draft 4 m.

Type: Cargo ship. MMSI: 431100886.

Date/timePositionNaut miles runAvg speedWind from/ knotsBaromVisibWave heightAir tempDewpointWater temp
2018-Feb-22 04:29N 33°54' E 130°53'0 0.0
2018-Feb-22 03:59N 33°54' E 130°53'0 0.0
2018-Feb-22 03:29N 33°54' E 130°53'0 0.0
2018-Feb-22 02:59N 33°54' E 130°53'0 0.0
2018-Feb-22 02:29N 33°54' E 130°53'0 0.0
2018-Feb-22 01:58N 33°54' E 130°53'0 0.0
2018-Feb-22 01:29N 33°54' E 130°53'0 0.0
2018-Feb-22 00:59N 33°54' E 130°53'2 3.8
2018-Feb-22 00:30N 33°54' E 130°55'510.2
2018-Feb-22 00:00N 33°58' E 130°59'5 9.2
2018-Feb-21 23:30N 33°57' E 131°04'714.0
2018-Feb-21 23:00N 33°53' E 131°11'714.2
2018-Feb-21 22:30N 33°52' E 131°19'714.3
2018-Feb-21 22:00N 33°52' E 131°28'714.2
2018-Feb-21 21:30N 33°51' E 131°37'714.0
2018-Feb-21 21:00N 33°50' E 131°45'714.0
2018-Feb-21 20:30N 33°47' E 131°53'713.7
2018-Feb-21 19:58N 33°46' E 132°02'814.7
2018-Feb-21 19:24N 33°49' E 132°10'614.4
2018-Feb-21 19:00N 33°50' E 132°17'814.6
2018-Feb-21 18:28N 33°51' E 132°26'714.3
2018-Feb-21 18:00N 33°54' E 132°34'713.9
2018-Feb-21 17:30N 33°57' E 132°41'7112.5
2018-Feb-21 11:47N 34°26' E 134°00'713.7
2018-Feb-21 11:16N 34°26' E 134°09'414.0
2018-Feb-21 10:58N 34°24' E 134°13'613.7
2018-Feb-21 10:30N 34°25' E 134°21'714.1
2018-Feb-21 10:00N 34°29' E 134°28'714.1
2018-Feb-21 09:30N 34°32' E 134°36'713.8
2018-Feb-21 09:01N 34°34' E 134°44'612.9
2018-Feb-21 08:31N 34°35' E 134°52'612.2
2018-Feb-21 08:00N 34°37' E 134°59'611.2
2018-Feb-21 07:30N 34°36' E 135°05'713.9
2018-Feb-21 07:00N 34°37' E 135°14'713.9
2018-Feb-21 06:31N 34°36' E 135°22'5 8.3
2018-Feb-21 05:58N 34°34' E 135°27'0 0.0
2018-Feb-21 05:28N 34°34' E 135°27'0 0.0
2018-Feb-21 04:58N 34°34' E 135°27'0 0.0
2018-Feb-21 04:28N 34°34' E 135°27'0 0.0
2018-Feb-21 03:58N 34°34' E 135°27'0 0.0
2018-Feb-21 03:28N 34°34' E 135°27'0 0.0
2018-Feb-21 02:58N 34°34' E 135°27'0 0.0
2018-Feb-21 02:25N 34°34' E 135°27'0 0.0
2018-Feb-21 01:58N 34°34' E 135°27'0 0.0
2018-Feb-21 01:28N 34°34' E 135°27'0 0.0
2018-Feb-21 00:58N 34°34' E 135°27'0 0.0
2018-Feb-21 00:28N 34°34' E 135°27'1 1.9
2018-Feb-21 00:00N 34°35' E 135°26'4 8.2
2018-Feb-20 23:31N 34°36' E 135°22'612.0
2018-Feb-20 23:00N 34°35' E 135°14'714.1
2018-Feb-20 22:31N 34°35' E 135°06'714.2
2018-Feb-20 22:00N 34°36' E 134°58'815.7
2018-Feb-20 21:30N 34°33' E 134°49'714.7
2018-Feb-20 21:00N 34°30' E 134°41'714.2
2018-Feb-20 20:30N 34°27' E 134°33'714.1
2018-Feb-20 20:00N 34°25' E 134°25'8513.3
2018-Feb-20 13:39N 34°02' E 132°46'315.8
2018-Feb-20 13:30N 34°00' E 132°44'814.7
2018-Feb-20 12:59N 33°55' E 132°38'714.9
2018-Feb-20 12:30N 33°52' E 132°30'714.7
2018-Feb-20 12:00N 33°50' E 132°22'714.6
2018-Feb-20 11:30N 33°49' E 132°13'714.3
2018-Feb-20 11:00N 33°46' E 132°05'713.7
2018-Feb-20 10:30N 33°45' E 131°57'713.9
2018-Feb-20 09:59N 33°46' E 131°49'714.0
2018-Feb-20 09:30N 33°47' E 131°41'714.2
2018-Feb-20 09:00N 33°49' E 131°32'714.4
2018-Feb-20 08:30N 33°51' E 131°24'714.5
2018-Feb-20 08:00N 33°52' E 131°15'714.5
2018-Feb-20 07:30N 33°55' E 131°07'714.2
2018-Feb-20 07:00N 33°58' E 130°60'713.6
2018-Feb-20 06:31N 33°54' E 130°54'1 1.4
2018-Feb-20 05:59N 33°54' E 130°53'0 0.0
2018-Feb-20 05:29N 33°54' E 130°53'0 0.0
2018-Feb-20 04:53N 33°54' E 130°53'0 0.0
2018-Feb-20 04:29N 33°54' E 130°53'0 0.0
2018-Feb-20 03:59N 33°54' E 130°53'0 0.0
2018-Feb-20 03:29N 33°54' E 130°53'0 0.0
2018-Feb-20 02:59N 33°54' E 130°53'0 0.0
2018-Feb-20 02:26N 33°54' E 130°53'0 0.0
2018-Feb-20 01:59N 33°54' E 130°53'0 0.0
2018-Feb-20 01:29N 33°54' E 130°53'0 0.0
2018-Feb-20 00:59N 33°54' E 130°53'0 0.6
2018-Feb-20 00:30N 33°54' E 130°53'511.0
2018-Feb-20 00:00N 33°58' E 130°58'4 8.0
2018-Feb-19 23:31N 33°58' E 131°02'713.7
2018-Feb-19 23:01N 33°54' E 131°09'714.6
2018-Feb-19 22:31N 33°52' E 131°17'714.7
2018-Feb-19 22:00N 33°51' E 131°26'5 9.5
2018-Feb-19 21:31N 33°51' E 131°32'714.3
2018-Feb-19 21:00N 33°50' E 131°40'714.0
2018-Feb-19 20:30N 33°48' E 131°49'1113.8
2018-Feb-19 19:42N 33°45' E 132°02'314.4
2018-Feb-19 19:30N 33°46' E 132°05'815.0
2018-Feb-19 18:57N 33°50' E 132°14'915.1
2018-Feb-19 18:21N 33°51' E 132°25'515.2
2018-Feb-19 18:00N 33°53' E 132°31'714.9
2018-Feb-19 17:30N 33°56' E 132°39'714.7
2018-Feb-19 17:00N 34°01' E 132°45'6712.0
2018-Feb-19 11:27N 34°26' E 134°00'814.4
2018-Feb-19 10:53N 34°26' E 134°10'614.2
2018-Feb-19 10:27N 34°25' E 134°17'613.8
2018-Feb-19 10:00N 34°27' E 134°24'714.0
2018-Feb-19 09:30N 34°30' E 134°31'713.8
2018-Feb-19 09:00N 34°33' E 134°39'713.5
2018-Feb-19 08:30N 34°34' E 134°47'612.8
2018-Feb-19 08:01N 34°37' E 134°54'611.8
2018-Feb-19 07:30N 34°37' E 135°01'611.4
2018-Feb-19 07:00N 34°37' E 135°08'714.0
2018-Feb-19 06:31N 34°37' E 135°17'713.7
2018-Feb-19 06:00N 34°36' E 135°25'2 4.5
2018-Feb-19 05:31N 34°34' E 135°27'0 0.0
2018-Feb-19 05:01N 34°34' E 135°27'0 0.0
2018-Feb-19 04:31N 34°34' E 135°27'0 0.0
2018-Feb-19 04:01N 34°34' E 135°27'0 0.0
2018-Feb-19 03:31N 34°34' E 135°27'0 0.0
2018-Feb-19 03:01N 34°34' E 135°27'0 0.0
2018-Feb-19 02:31N 34°34' E 135°27'0 0.0
2018-Feb-19 02:01N 34°34' E 135°27'0 0.0
2018-Feb-19 01:31N 34°34' E 135°27'0 0.0
2018-Feb-19 01:01N 34°34' E 135°27'0 0.0
2018-Feb-19 00:31N 34°34' E 135°27'0 0.0
2018-Feb-19 00:01N 34°34' E 135°27'1 1.5
2018-Feb-18 23:30N 34°35' E 135°27'5 9.7
2018-Feb-18 23:00N 34°36' E 135°21'5 9.4
2018-Feb-18 22:30N 34°35' E 135°15'0 0.0
2018-Feb-18 22:00N 34°35' E 135°15'612.8
2018-Feb-18 21:30N 34°34' E 135°08'815.3
2018-Feb-18 21:01N 34°37' E 134°59'816.0
2018-Feb-18 20:31N 34°33' E 134°51'714.7
2018-Feb-18 20:00N 34°30' E 134°43'714.2
2018-Feb-18 19:30N 34°27' E 134°35'714.0
2018-Feb-18 19:00N 34°25' E 134°27'714.1
2018-Feb-18 18:29N 34°24' E 134°18'815.3
2018-Feb-18 17:56N 34°26' E 134°08'7213.8
2018-Feb-18 12:44N 34°02' E 132°46'415.3
2018-Feb-18 12:29N 33°59' E 132°43'714.7
2018-Feb-18 12:00N 33°54' E 132°37'1214.7
2018-Feb-18 11:11N 33°50' E 132°24'314.8
2018-Feb-18 11:00N 33°50' E 132°20'714.6
2018-Feb-18 10:31N 33°49' E 132°12'714.1
2018-Feb-18 10:00N 33°46' E 132°04'913.7
2018-Feb-18 09:21N 33°45' E 131°53'513.7
2018-Feb-18 09:00N 33°46' E 131°48'713.8
2018-Feb-18 08:30N 33°47' E 131°40'714.0
2018-Feb-18 08:00N 33°49' E 131°31'714.2
2018-Feb-18 07:30N 33°51' E 131°23'714.4
2018-Feb-18 07:00N 33°52' E 131°15'714.4
2018-Feb-18 06:30N 33°55' E 131°07'713.7
2018-Feb-18 06:00N 33°58' E 130°59'612.8
2018-Feb-18 05:30N 33°54' E 130°54'1 1.5
2018-Feb-18 04:58N 33°54' E 130°53'0 0.0
2018-Feb-18 04:28N 33°54' E 130°53'0 0.0
2018-Feb-18 03:55N 33°54' E 130°53'0 0.0
2018-Feb-18 03:28N 33°54' E 130°53'0 0.0
2018-Feb-18 02:58N 33°54' E 130°53'0 0.0
2018-Feb-18 02:28N 33°54' E 130°53'0 0.0
2018-Feb-18 01:58N 33°54' E 130°53'0 0.0
2018-Feb-18 01:25N 33°54' E 130°53'0 0.0
2018-Feb-18 00:58N 33°54' E 130°53'0 0.0
2018-Feb-18 00:28N 33°54' E 130°53'0 0.0
2018-Feb-17 23:58N 33°54' E 130°53'0 0.1
2018-Feb-17 23:30N 33°54' E 130°53'5 9.3
2018-Feb-17 23:01N 33°57' E 130°57'4 7.3
2018-Feb-17 22:30N 33°58' E 131°01'612.3
2018-Feb-17 22:00N 33°55' E 131°07'714.9
2018-Feb-17 21:30N 33°52' E 131°15'714.9
2018-Feb-17 21:00N 33°53' E 131°24'714.7
2018-Feb-17 20:30N 33°53' E 131°33'714.7
2018-Feb-17 20:01N 33°52' E 131°42'714.3
2018-Feb-17 19:31N 33°49' E 131°50'1014.0
2018-Feb-17 18:46N 33°46' E 132°02'615.1
2018-Feb-17 18:23N 33°48' E 132°08'615.2
2018-Feb-17 18:00N 33°50' E 132°14'1115.4
2018-Feb-17 17:19N 33°51' E 132°27'515.5
2018-Feb-17 17:00N 33°53' E 132°32'815.5
2018-Feb-17 16:31N 33°57' E 132°41'8112.8
2018-Feb-17 10:13N 34°25' E 134°12'713.6
2018-Feb-17 09:41N 34°25' E 134°21'214.1
2018-Feb-17 09:30N 34°25' E 134°24'714.2
2018-Feb-17 09:00N 34°28' E 134°31'713.9
2018-Feb-17 08:30N 34°31' E 134°39'713.3
2018-Feb-17 08:00N 34°34' E 134°46'612.8
2018-Feb-17 07:30N 34°36' E 134°54'611.7
2018-Feb-17 07:01N 34°37' E 135°01'510.1
2018-Feb-17 06:30N 34°36' E 135°07'612.8
2018-Feb-17 06:00N 34°37' E 135°14'613.0
2018-Feb-17 05:31N 34°36' E 135°22'4 8.0
2018-Feb-17 05:00N 34°35' E 135°27'0 0.9
2018-Feb-17 04:29N 34°34' E 135°27'0 0.0
2018-Feb-17 03:59N 34°34' E 135°27'0 0.0
2018-Feb-17 03:29N 34°34' E 135°27'0 0.0
2018-Feb-17 02:56N 34°34' E 135°27'0 0.0
2018-Feb-17 02:29N 34°34' E 135°27'0 0.0
2018-Feb-17 01:56N 34°34' E 135°27'0 0.0
2018-Feb-17 01:26N 34°34' E 135°27'0 0.0
2018-Feb-17 00:56N 34°34' E 135°27'0 0.0
2018-Feb-17 00:29N 34°34' E 135°27'0 0.0
2018-Feb-16 23:56N 34°34' E 135°27'0 0.4
2018-Feb-16 23:29N 34°35' E 135°27'3 5.5
2018-Feb-16 23:00N 34°36' E 135°24'510.0
2018-Feb-16 22:30N 34°34' E 135°19'5 9.9
2018-Feb-16 22:00N 34°34' E 135°13'714.5
2018-Feb-16 21:31N 34°35' E 135°04'611.5
2018-Feb-16 21:00N 34°36' E 134°57'714.5
2018-Feb-16 20:31N 34°33' E 134°49'714.3
2018-Feb-16 20:01N 34°30' E 134°41'714.1
2018-Feb-16 19:31N 34°27' E 134°33'714.3
2018-Feb-16 19:01N 34°25' E 134°25'8713.2
2018-Feb-16 12:27N 33°60' E 132°45'715.4
2018-Feb-16 11:59N 33°55' E 132°39'1215.0
2018-Feb-16 11:09N 33°50' E 132°25'214.7
2018-Feb-16 11:00N 33°50' E 132°22'714.8
2018-Feb-16 10:30N 33°49' E 132°13'714.5
2018-Feb-16 09:59N 33°46' E 132°05'713.9
2018-Feb-16 09:30N 33°45' E 131°57'713.5
2018-Feb-16 09:00N 33°46' E 131°49'713.5
2018-Feb-16 08:30N 33°47' E 131°41'713.6
2018-Feb-16 08:00N 33°49' E 131°33'713.7
2018-Feb-16 07:30N 33°50' E 131°25'713.8
2018-Feb-16 07:00N 33°52' E 131°17'713.9
2018-Feb-16 06:31N 33°54' E 131°09'713.9
2018-Feb-16 06:00N 33°58' E 131°02'612.0
2018-Feb-16 05:31N 33°55' E 130°56'2 3.3
2018-Feb-16 04:45N 33°54' E 130°53'0 0.0
2018-Feb-16 04:30N 33°54' E 130°53'0 0.0
2018-Feb-16 04:00N 33°54' E 130°53'0 0.0
2018-Feb-16 03:30N 33°54' E 130°53'0 0.0
2018-Feb-16 03:00N 33°54' E 130°53'0 0.0
2018-Feb-16 02:24N 33°54' E 130°53'0 0.0
2018-Feb-16 01:57N 33°54' E 130°53'0 0.0
2018-Feb-16 01:30N 33°54' E 130°53'0 0.0
2018-Feb-16 01:00N 33°54' E 130°53'0 0.0
2018-Feb-16 00:30N 33°54' E 130°53'0 0.0
2018-Feb-16 00:00N 33°54' E 130°53'0 0.0
2018-Feb-15 23:30N 33°54' E 130°53'0 0.0
2018-Feb-15 23:00N 33°54' E 130°53'0 0.2
2018-Feb-15 22:31N 33°54' E 130°53'5 9.5
2018-Feb-15 22:00N 33°57' E 130°57'4 8.1
2018-Feb-15 21:31N 33°58' E 131°02'714.3
2018-Feb-15 21:00N 33°54' E 131°09'714.7
2018-Feb-15 20:30N 33°52' E 131°17'814.9
2018-Feb-15 20:00N 33°52' E 131°26'714.6
2018-Feb-15 19:30N 33°51' E 131°35'5 9.2
2018-Feb-15 18:59N 33°51' E 131°41'613.6
2018-Feb-15 18:30N 33°50' E 131°48'714.3
2018-Feb-15 18:01N 33°46' E 131°56'714.0
2018-Feb-15 17:30N 33°46' E 132°04'1015.0
2018-Feb-15 16:51N 33°50' E 132°15'514.9
2018-Feb-15 16:30N 33°50' E 132°21'815.5
2018-Feb-15 15:59N 33°53' E 132°31'715.2
2018-Feb-15 15:30N 33°56' E 132°39'815.2
2018-Feb-15 14:59N 34°01' E 132°45'7412.8
2018-Feb-15 09:13N 34°26' E 134°10'314.7
2018-Feb-15 09:00N 34°25' E 134°13'714.3
2018-Feb-15 08:30N 34°26' E 134°22'714.0
2018-Feb-15 08:00N 34°30' E 134°29'714.0
2018-Feb-15 07:30N 34°32' E 134°36'713.7
2018-Feb-15 07:00N 34°34' E 134°45'713.2
2018-Feb-15 06:30N 34°36' E 134°52'612.5
2018-Feb-15 06:00N 34°37' E 134°60'510.9
2018-Feb-15 05:31N 34°37' E 135°06'713.9
2018-Feb-15 05:00N 34°37' E 135°14'713.8
2018-Feb-15 04:30N 34°36' E 135°23'4 8.0
2018-Feb-15 04:00N 34°34' E 135°27'0 0.0
2018-Feb-15 03:28N 34°34' E 135°27'0 0.0
2018-Feb-15 02:49N 34°34' E 135°27'0 0.0
2018-Feb-15 02:25N 34°34' E 135°27'0 0.0
2018-Feb-15 01:55N 34°34' E 135°27'0 0.0
2018-Feb-15 01:28N 34°34' E 135°27'0 0.0
2018-Feb-15 00:58N 34°34' E 135°27'0 0.0
2018-Feb-15 00:25N 34°34' E 135°27'0 0.0
2018-Feb-14 23:55N 34°34' E 135°27'0 0.6
2018-Feb-14 23:28N 34°35' E 135°27'3 6.2
2018-Feb-14 23:00N 34°36' E 135°24'5 9.9
2018-Feb-14 22:31N 34°35' E 135°18'5 9.1
2018-Feb-14 22:01N 34°33' E 135°13'713.5
2018-Feb-14 21:30N 34°35' E 135°05'510.9
2018-Feb-14 21:00N 34°37' E 134°59'713.3
2018-Feb-14 20:30N 34°34' E 134°52'713.9
2018-Feb-14 20:01N 34°31' E 134°44'713.9
2018-Feb-14 19:30N 34°28' E 134°36'714.1
2018-Feb-14 19:01N 34°26' E 134°28'714.0
2018-Feb-14 18:29N 34°24' E 134°20'714.6
2018-Feb-14 18:00N 34°25' E 134°11'7612.8
2018-Feb-14 12:05N 34°00' E 132°45'215.1
2018-Feb-14 11:57N 33°59' E 132°44'715.2
2018-Feb-14 11:30N 33°54' E 132°37'1114.8
2018-Feb-14 10:45N 33°50' E 132°25'415.0
2018-Feb-14 10:29N 33°50' E 132°20'714.7
2018-Feb-14 10:00N 33°49' E 132°12'714.7
2018-Feb-14 09:31N 33°46' E 132°04'1413.8
2018-Feb-14 08:31N 33°47' E 131°47'113.2
2018-Feb-14 08:26N 33°47' E 131°46'613.7
2018-Feb-14 08:00N 33°49' E 131°39'713.6
2018-Feb-14 07:30N 33°50' E 131°31'713.6
2018-Feb-14 07:00N 33°51' E 131°23'713.5
2018-Feb-14 06:30N 33°52' E 131°15'713.6
2018-Feb-14 06:00N 33°55' E 131°08'714.1
2018-Feb-14 05:30N 33°59' E 131°00'714.4
2018-Feb-14 05:00N 33°54' E 130°54'1 1.6
2018-Feb-14 04:30N 33°54' E 130°53'0 0.0
2018-Feb-14 03:57N 33°54' E 130°53'0 0.0
2018-Feb-14 03:30N 33°54' E 130°53'0 0.0
2018-Feb-14 03:00N 33°54' E 130°53'0 0.0
2018-Feb-14 02:30N 33°54' E 130°53'0 0.0
2018-Feb-14 02:00N 33°54' E 130°53'0 0.0
2018-Feb-14 01:30N 33°54' E 130°53'0 0.0
2018-Feb-14 01:00N 33°54' E 130°53'0 0.0
2018-Feb-14 00:30N 33°54' E 130°53'0 0.0
2018-Feb-13 23:57N 33°54' E 130°53'0 0.0
2018-Feb-13 23:30N 33°54' E 130°53'1 2.1
2018-Feb-13 23:01N 33°54' E 130°54'713.8
2018-Feb-13 22:30N 33°59' E 131°00'713.2
2018-Feb-13 22:00N 33°55' E 131°07'714.5
2018-Feb-13 21:30N 33°52' E 131°15'714.6
2018-Feb-13 21:00N 33°52' E 131°23'714.6
2018-Feb-13 20:30N 33°51' E 131°32'714.7
2018-Feb-13 20:00N 33°50' E 131°41'714.6
2018-Feb-13 19:31N 33°48' E 131°49'1014.1
2018-Feb-13 18:49N 33°46' E 132°01'614.1
2018-Feb-13 18:23N 33°48' E 132°08'514.2
2018-Feb-13 17:59N 33°50' E 132°14'714.2
2018-Feb-13 17:29N 33°50' E 132°22'814.5
2018-Feb-13 16:58N 33°52' E 132°31'715.0
2018-Feb-13 16:30N 33°56' E 132°38'715.0
2018-Feb-13 16:00N 34°01' E 132°45'7012.8
2018-Feb-13 10:33N 34°27' E 134°03'514.2
2018-Feb-13 10:12N 34°26' E 134°09'314.5
2018-Feb-13 09:59N 34°24' E 134°13'714.0
2018-Feb-13 09:30N 34°25' E 134°21'714.1
2018-Feb-13 09:00N 34°28' E 134°29'713.8
2018-Feb-13 08:30N 34°31' E 134°36'713.2
2018-Feb-13 08:00N 34°33' E 134°44'713.3
2018-Feb-13 07:30N 34°35' E 134°51'613.1
2018-Feb-13 07:00N 34°37' E 134°59'611.7
2018-Feb-13 06:30N 34°36' E 135°06'713.0
2018-Feb-13 06:00N 34°37' E 135°14'713.2
2018-Feb-13 05:30N 34°36' E 135°22'5 9.2
2018-Feb-13 05:00N 34°34' E 135°27'0 0.1
2018-Feb-13 04:28N 34°34' E 135°27'0 0.0
2018-Feb-13 03:58N 34°34' E 135°27'0 0.0
2018-Feb-13 03:28N 34°34' E 135°27'0 0.0
2018-Feb-13 02:55N 34°34' E 135°27'0 0.0
2018-Feb-13 02:28N 34°34' E 135°27'0 0.0
2018-Feb-13 01:58N 34°34' E 135°27'0 0.0
2018-Feb-13 01:25N 34°34' E 135°27'0 0.0
2018-Feb-13 00:58N 34°34' E 135°27'0 0.0
2018-Feb-13 00:28N 34°34' E 135°27'0 0.0
2018-Feb-12 23:58N 34°34' E 135°27'0 0.7
2018-Feb-12 23:30N 34°35' E 135°27'4 7.9
2018-Feb-12 23:01N 34°36' E 135°22'713.9
2018-Feb-12 22:30N 34°35' E 135°14'713.7
2018-Feb-12 22:00N 34°35' E 135°06'510.9
2018-Feb-12 21:31N 34°37' E 134°60'612.0
2018-Feb-12 21:00N 34°34' E 134°53'612.6
2018-Feb-12 20:30N 34°32' E 134°46'713.5
2018-Feb-12 20:00N 34°29' E 134°39'713.7
2018-Feb-12 19:29N 34°26' E 134°31'2 4.7
2018-Feb-12 19:00N 34°24' E 134°30'612.5
2018-Feb-12 18:30N 34°24' E 134°22'814.1
2018-Feb-12 17:55N 34°24' E 134°12'7612.9
2018-Feb-12 12:01N 33°60' E 132°45'114.0
2018-Feb-12 11:58N 33°59' E 132°45'714.6
2018-Feb-12 11:29N 33°54' E 132°38'1214.5
2018-Feb-12 10:41N 33°50' E 132°25'214.7
2018-Feb-12 10:30N 33°50' E 132°22'814.6
2018-Feb-12 09:57N 33°49' E 132°12'714.5
2018-Feb-12 09:29N 33°46' E 132°05'1314.0
2018-Feb-12 08:32N 33°46' E 131°49'113.2
2018-Feb-12 08:30N 33°46' E 131°48'814.0
2018-Feb-12 07:53N 33°47' E 131°38'513.8
2018-Feb-12 07:30N 33°49' E 131°32'713.8
2018-Feb-12 07:00N 33°50' E 131°24'714.1
2018-Feb-12 06:30N 33°52' E 131°16'713.8
2018-Feb-12 06:00N 33°55' E 131°08'713.9
2018-Feb-12 05:30N 33°58' E 131°01'713.9
2018-Feb-12 05:01N 33°54' E 130°54'1 2.3
2018-Feb-12 04:30N 33°54' E 130°53'  

Dump ship's entire track history